sensor_id;sensor_type;location;lat;lon;timestamp;temperature;humidity
44573;DHT22;31762;45.420;10.072;2022-07-21T00:03:09;29.20;95.10
44573;DHT22;31762;45.420;10.072;2022-07-21T00:08:10;29.20;95.40
44573;DHT22;31762;45.420;10.072;2022-07-21T00:13:12;29.00;95.20
44573;DHT22;31762;45.420;10.072;2022-07-21T00:18:17;29.20;95.10
44573;DHT22;31762;45.420;10.072;2022-07-21T00:23:19;29.20;95.30
44573;DHT22;31762;45.420;10.072;2022-07-21T00:28:21;28.80;95.80
44573;DHT22;31762;45.420;10.072;2022-07-21T00:33:23;28.90;95.90
44573;DHT22;31762;45.420;10.072;2022-07-21T00:38:25;28.70;96.00
44573;DHT22;31762;45.420;10.072;2022-07-21T00:43:26;28.70;95.90
44573;DHT22;31762;45.420;10.072;2022-07-21T00:48:28;28.80;96.80
44573;DHT22;31762;45.420;10.072;2022-07-21T00:53:30;28.80;96.30
44573;DHT22;31762;45.420;10.072;2022-07-21T00:58:32;28.80;96.20
44573;DHT22;31762;45.420;10.072;2022-07-21T01:03:34;28.90;96.10
44573;DHT22;31762;45.420;10.072;2022-07-21T01:08:36;28.70;96.60
44573;DHT22;31762;45.420;10.072;2022-07-21T01:13:37;28.50;97.20
44573;DHT22;31762;45.420;10.072;2022-07-21T01:18:40;28.80;97.20
44573;DHT22;31762;45.420;10.072;2022-07-21T01:23:42;28.60;97.10
44573;DHT22;31762;45.420;10.072;2022-07-21T01:28:43;28.60;97.00
44573;DHT22;31762;45.420;10.072;2022-07-21T01:33:45;28.30;97.10
44573;DHT22;31762;45.420;10.072;2022-07-21T01:38:47;28.20;98.00
44573;DHT22;31762;45.420;10.072;2022-07-21T01:43:49;28.20;98.30
44573;DHT22;31762;45.420;10.072;2022-07-21T01:48:51;28.40;98.00
44573;DHT22;31762;45.420;10.072;2022-07-21T01:53:53;28.00;98.10
44573;DHT22;31762;45.420;10.072;2022-07-21T01:58:56;28.40;98.90
44573;DHT22;31762;45.420;10.072;2022-07-21T02:04:00;28.20;99.00
44573;DHT22;31762;45.420;10.072;2022-07-21T02:09:03;28.00;99.80
44573;DHT22;31762;45.420;10.072;2022-07-21T02:14:05;28.10;99.80
44573;DHT22;31762;45.420;10.072;2022-07-21T02:19:08;28.20;99.60
44573;DHT22;31762;45.420;10.072;2022-07-21T02:24:10;28.20;99.90
44573;DHT22;31762;45.420;10.072;2022-07-21T02:29:11;28.10;99.90
44573;DHT22;31762;45.420;10.072;2022-07-21T02:34:13;28.00;99.90
44573;DHT22;31762;45.420;10.072;2022-07-21T02:39:15;27.60;99.90
44573;DHT22;31762;45.420;10.072;2022-07-21T02:44:17;27.90;99.90
44573;DHT22;31762;45.420;10.072;2022-07-21T02:49:18;28.00;99.90
44573;DHT22;31762;45.420;10.072;2022-07-21T02:54:20;27.70;99.90
44573;DHT22;31762;45.420;10.072;2022-07-21T02:59:23;27.60;99.90
44573;DHT22;31762;45.420;10.072;2022-07-21T03:04:25;28.00;99.90
44573;DHT22;31762;45.420;10.072;2022-07-21T03:09:26;27.70;99.90
44573;DHT22;31762;45.420;10.072;2022-07-21T03:14:30;28.10;99.90
44573;DHT22;31762;45.420;10.072;2022-07-21T03:19:32;27.70;99.90
44573;DHT22;31762;45.420;10.072;2022-07-21T03:24:34;27.60;99.90
44573;DHT22;31762;45.420;10.072;2022-07-21T03:29:36;27.60;99.90
44573;DHT22;31762;45.420;10.072;2022-07-21T03:34:38;27.80;99.90
44573;DHT22;31762;45.420;10.072;2022-07-21T03:39:40;27.90;99.90
44573;DHT22;31762;45.420;10.072;2022-07-21T03:44:42;28.30;99.90
44573;DHT22;31762;45.420;10.072;2022-07-21T03:49:43;28.60;99.90
44573;DHT22;31762;45.420;10.072;2022-07-21T03:54:45;28.10;99.90
44573;DHT22;31762;45.420;10.072;2022-07-21T03:59:47;27.50;99.90
44573;DHT22;31762;45.420;10.072;2022-07-21T04:04:48;27.60;99.90
44573;DHT22;31762;45.420;10.072;2022-07-21T04:09:50;27.40;99.90
44573;DHT22;31762;45.420;10.072;2022-07-21T04:14:52;27.20;99.90
44573;DHT22;31762;45.420;10.072;2022-07-21T04:19:54;26.80;99.90
44573;DHT22;31762;45.420;10.072;2022-07-21T04:24:58;27.50;99.90
44573;DHT22;31762;45.420;10.072;2022-07-21T04:30:01;27.40;99.90
44573;DHT22;31762;45.420;10.072;2022-07-21T04:35:04;27.20;99.90
44573;DHT22;31762;45.420;10.072;2022-07-21T04:40:09;27.10;99.90
44573;DHT22;31762;45.420;10.072;2022-07-21T04:45:13;27.10;99.90
44573;DHT22;31762;45.420;10.072;2022-07-21T04:50:17;27.00;99.90
44573;DHT22;31762;45.420;10.072;2022-07-21T04:55:19;27.00;99.90
44573;DHT22;31762;45.420;10.072;2022-07-21T05:00:23;27.10;99.90
44573;DHT22;31762;45.420;10.072;2022-07-21T05:05:25;27.40;99.90
44573;DHT22;31762;45.420;10.072;2022-07-21T05:10:27;27.80;99.90
44573;DHT22;31762;45.420;10.072;2022-07-21T05:15:28;28.00;99.90
44573;DHT22;31762;45.420;10.072;2022-07-21T05:20:30;28.60;99.90
44573;DHT22;31762;45.420;10.072;2022-07-21T05:25:32;28.80;99.90
44573;DHT22;31762;45.420;10.072;2022-07-21T05:30:34;28.90;99.90
44573;DHT22;31762;45.420;10.072;2022-07-21T05:35:36;28.60;99.90
44573;DHT22;31762;45.420;10.072;2022-07-21T05:40:37;28.70;99.90
44573;DHT22;31762;45.420;10.072;2022-07-21T05:45:39;29.10;99.90
44573;DHT22;31762;45.420;10.072;2022-07-21T05:50:41;29.00;99.90
44573;DHT22;31762;45.420;10.072;2022-07-21T05:55:43;29.20;99.90
44573;DHT22;31762;45.420;10.072;2022-07-21T06:00:45;29.30;99.90
44573;DHT22;31762;45.420;10.072;2022-07-21T06:05:46;29.30;99.90
44573;DHT22;31762;45.420;10.072;2022-07-21T06:10:48;29.60;99.90
44573;DHT22;31762;45.420;10.072;2022-07-21T06:15:50;29.70;99.90
44573;DHT22;31762;45.420;10.072;2022-07-21T06:20:52;29.80;99.90
44573;DHT22;31762;45.420;10.072;2022-07-21T06:25:54;30.00;99.90
44573;DHT22;31762;45.420;10.072;2022-07-21T06:30:55;30.10;99.90
44573;DHT22;31762;45.420;10.072;2022-07-21T06:35:57;30.30;99.90
44573;DHT22;31762;45.420;10.072;2022-07-21T06:40:59;30.10;99.90
44573;DHT22;31762;45.420;10.072;2022-07-21T06:46:01;30.40;99.90
44573;DHT22;31762;45.420;10.072;2022-07-21T06:51:03;30.60;99.90
44573;DHT22;31762;45.420;10.072;2022-07-21T06:56:05;30.40;99.90
44573;DHT22;31762;45.420;10.072;2022-07-21T07:01:07;30.40;99.90
44573;DHT22;31762;45.420;10.072;2022-07-21T07:06:09;30.30;99.90
44573;DHT22;31762;45.420;10.072;2022-07-21T07:11:11;30.90;99.90
44573;DHT22;31762;45.420;10.072;2022-07-21T07:16:15;31.20;99.90
44573;DHT22;31762;45.420;10.072;2022-07-21T07:21:17;31.40;99.90
44573;DHT22;31762;45.420;10.072;2022-07-21T07:26:19;31.40;99.90
44573;DHT22;31762;45.420;10.072;2022-07-21T07:31:20;31.70;99.90
44573;DHT22;31762;45.420;10.072;2022-07-21T07:36:23;31.60;99.90
44573;DHT22;31762;45.420;10.072;2022-07-21T07:41:26;31.60;99.90
44573;DHT22;31762;45.420;10.072;2022-07-21T07:46:28;31.80;98.20
44573;DHT22;31762;45.420;10.072;2022-07-21T07:51:30;32.00;98.20
44573;DHT22;31762;45.420;10.072;2022-07-21T07:56:32;32.10;98.80
44573;DHT22;31762;45.420;10.072;2022-07-21T08:01:34;32.00;98.60
44573;DHT22;31762;45.420;10.072;2022-07-21T08:06:36;32.30;99.60
44573;DHT22;31762;45.420;10.072;2022-07-21T08:11:37;32.30;98.80
44573;DHT22;31762;45.420;10.072;2022-07-21T08:16:39;32.50;97.00
44573;DHT22;31762;45.420;10.072;2022-07-21T08:21:41;32.30;97.60
44573;DHT22;31762;45.420;10.072;2022-07-21T08:27:03;32.70;98.10
44573;DHT22;31762;45.420;10.072;2022-07-21T08:32:05;32.80;97.70
44573;DHT22;31762;45.420;10.072;2022-07-21T08:37:07;33.10;98.30
44573;DHT22;31762;45.420;10.072;2022-07-21T08:42:10;33.10;96.20
44573;DHT22;31762;45.420;10.072;2022-07-21T08:47:12;32.90;95.20
44573;DHT22;31762;45.420;10.072;2022-07-21T08:52:14;33.00;94.90
44573;DHT22;31762;45.420;10.072;2022-07-21T08:57:16;33.30;95.60
44573;DHT22;31762;45.420;10.072;2022-07-21T09:02:33;33.60;93.60
44573;DHT22;31762;45.420;10.072;2022-07-21T09:07:52;34.00;95.10
44573;DHT22;31762;45.420;10.072;2022-07-21T09:13:00;33.10;93.80
44573;DHT22;31762;45.420;10.072;2022-07-21T09:18:15;33.90;93.70
44573;DHT22;31762;45.420;10.072;2022-07-21T09:23:18;33.90;95.30
44573;DHT22;31762;45.420;10.072;2022-07-21T09:28:23;34.00;94.00
44573;DHT22;31762;45.420;10.072;2022-07-21T09:38:30;34.60;93.10
44573;DHT22;31762;45.420;10.072;2022-07-21T09:43:39;34.50;93.30
44573;DHT22;31762;45.420;10.072;2022-07-21T09:48:43;34.80;92.70
44573;DHT22;31762;45.420;10.072;2022-07-21T09:53:53;34.60;91.10
44573;DHT22;31762;45.420;10.072;2022-07-21T09:58:56;34.80;92.20
44573;DHT22;31762;45.420;10.072;2022-07-21T10:03:59;35.00;89.50
44573;DHT22;31762;45.420;10.072;2022-07-21T10:09:04;35.10;87.50
44573;DHT22;31762;45.420;10.072;2022-07-21T10:14:09;35.20;82.70
44573;DHT22;31762;45.420;10.072;2022-07-21T10:19:28;35.00;83.80
44573;DHT22;31762;45.420;10.072;2022-07-21T10:24:32;35.10;83.90
44573;DHT22;31762;45.420;10.072;2022-07-21T10:29:54;35.50;83.00
44573;DHT22;31762;45.420;10.072;2022-07-21T10:35:28;35.30;73.30
44573;DHT22;31762;45.420;10.072;2022-07-21T10:45:34;35.80;81.90
44573;DHT22;31762;45.420;10.072;2022-07-21T10:50:40;35.00;79.00
44573;DHT22;31762;45.420;10.072;2022-07-21T10:55:55;36.20;78.20
44573;DHT22;31762;45.420;10.072;2022-07-21T11:00:58;36.30;78.80
44573;DHT22;31762;45.420;10.072;2022-07-21T11:06:23;36.50;77.30
44573;DHT22;31762;45.420;10.072;2022-07-21T11:21:46;37.20;78.30
44573;DHT22;31762;45.420;10.072;2022-07-21T11:27:00;36.30;71.10
44573;DHT22;31762;45.420;10.072;2022-07-21T11:32:02;37.00;72.90
44573;DHT22;31762;45.420;10.072;2022-07-21T11:37:04;37.20;74.80
44573;DHT22;31762;45.420;10.072;2022-07-21T11:42:27;37.20;72.90
44573;DHT22;31762;45.420;10.072;2022-07-21T11:47:30;37.30;68.10
44573;DHT22;31762;45.420;10.072;2022-07-21T11:52:34;36.70;70.00
44573;DHT22;31762;45.420;10.072;2022-07-21T11:57:43;37.60;76.60
44573;DHT22;31762;45.420;10.072;2022-07-21T12:02:45;37.50;70.40
44573;DHT22;31762;45.420;10.072;2022-07-21T12:07:50;37.90;75.30
44573;DHT22;31762;45.420;10.072;2022-07-21T12:13:06;38.00;72.50
44573;DHT22;31762;45.420;10.072;2022-07-21T12:18:17;38.10;72.80
44573;DHT22;31762;45.420;10.072;2022-07-21T12:23:24;38.40;71.50
44573;DHT22;31762;45.420;10.072;2022-07-21T12:28:47;38.20;73.00
44573;DHT22;31762;45.420;10.072;2022-07-21T12:33:50;37.80;77.10
44573;DHT22;31762;45.420;10.072;2022-07-21T12:39:31;38.30;75.20
44573;DHT22;31762;45.420;10.072;2022-07-21T12:44:33;38.60;76.40
44573;DHT22;31762;45.420;10.072;2022-07-21T12:50:07;38.30;74.70
44573;DHT22;31762;45.420;10.072;2022-07-21T12:55:19;39.10;70.90
44573;DHT22;31762;45.420;10.072;2022-07-21T13:00:21;39.00;71.60
44573;DHT22;31762;45.420;10.072;2022-07-21T13:05:24;39.40;71.30
44573;DHT22;31762;45.420;10.072;2022-07-21T13:10:26;38.80;67.20
44573;DHT22;31762;45.420;10.072;2022-07-21T13:15:28;39.30;68.40
44573;DHT22;31762;45.420;10.072;2022-07-21T13:20:30;39.40;70.00
44573;DHT22;31762;45.420;10.072;2022-07-21T13:25:32;39.40;66.00
44573;DHT22;31762;45.420;10.072;2022-07-21T13:30:33;39.20;68.30
44573;DHT22;31762;45.420;10.072;2022-07-21T13:35:43;39.10;63.80
44573;DHT22;31762;45.420;10.072;2022-07-21T13:40:45;38.70;66.90
44573;DHT22;31762;45.420;10.072;2022-07-21T13:46:06;39.20;64.70
44573;DHT22;31762;45.420;10.072;2022-07-21T13:51:08;38.90;67.70
44573;DHT22;31762;45.420;10.072;2022-07-21T13:56:11;39.20;68.20
44573;DHT22;31762;45.420;10.072;2022-07-21T14:01:14;39.30;67.50
44573;DHT22;31762;45.420;10.072;2022-07-21T14:06:17;39.40;70.80
44573;DHT22;31762;45.420;10.072;2022-07-21T14:11:19;39.20;66.10
44573;DHT22;31762;45.420;10.072;2022-07-21T14:16:20;39.80;65.90
44573;DHT22;31762;45.420;10.072;2022-07-21T14:21:22;39.40;69.30
44573;DHT22;31762;45.420;10.072;2022-07-21T14:26:24;39.90;66.00
44573;DHT22;31762;45.420;10.072;2022-07-21T14:31:26;38.80;63.80
44573;DHT22;31762;45.420;10.072;2022-07-21T14:36:28;38.60;65.50
44573;DHT22;31762;45.420;10.072;2022-07-21T14:41:30;39.40;68.60
44573;DHT22;31762;45.420;10.072;2022-07-21T14:46:32;38.50;64.20
44573;DHT22;31762;45.420;10.072;2022-07-21T14:51:35;38.50;68.70
44573;DHT22;31762;45.420;10.072;2022-07-21T14:56:36;39.20;65.50
44573;DHT22;31762;45.420;10.072;2022-07-21T15:01:58;39.40;65.40
44573;DHT22;31762;45.420;10.072;2022-07-21T15:07:07;39.20;68.60
44573;DHT22;31762;45.420;10.072;2022-07-21T15:12:10;39.20;69.10
44573;DHT22;31762;45.420;10.072;2022-07-21T15:17:11;39.00;66.50
44573;DHT22;31762;45.420;10.072;2022-07-21T15:22:14;39.10;67.20
44573;DHT22;31762;45.420;10.072;2022-07-21T15:27:16;38.90;70.40
44573;DHT22;31762;45.420;10.072;2022-07-21T15:32:17;39.10;66.00
44573;DHT22;31762;45.420;10.072;2022-07-21T15:37:19;39.00;69.40
44573;DHT22;31762;45.420;10.072;2022-07-21T15:42:21;39.00;71.20
44573;DHT22;31762;45.420;10.072;2022-07-21T15:47:23;38.90;70.70
44573;DHT22;31762;45.420;10.072;2022-07-21T15:52:24;39.00;68.70
44573;DHT22;31762;45.420;10.072;2022-07-21T15:57:26;38.50;71.80
44573;DHT22;31762;45.420;10.072;2022-07-21T16:02:28;38.30;69.90
44573;DHT22;31762;45.420;10.072;2022-07-21T16:07:30;38.10;73.90
44573;DHT22;31762;45.420;10.072;2022-07-21T16:12:32;37.90;71.60
44573;DHT22;31762;45.420;10.072;2022-07-21T16:17:34;37.70;70.70
44573;DHT22;31762;45.420;10.072;2022-07-21T16:22:36;37.30;71.60
44573;DHT22;31762;45.420;10.072;2022-07-21T16:27:38;36.90;72.50
44573;DHT22;31762;45.420;10.072;2022-07-21T16:32:41;36.80;72.70
44573;DHT22;31762;45.420;10.072;2022-07-21T16:37:45;36.40;73.30
44573;DHT22;31762;45.420;10.072;2022-07-21T16:42:49;36.30;76.20
44573;DHT22;31762;45.420;10.072;2022-07-21T16:47:51;36.10;76.10
44573;DHT22;31762;45.420;10.072;2022-07-21T16:52:53;35.90;74.30
44573;DHT22;31762;45.420;10.072;2022-07-21T16:57:54;35.70;74.50
44573;DHT22;31762;45.420;10.072;2022-07-21T17:02:56;35.70;75.70
44573;DHT22;31762;45.420;10.072;2022-07-21T17:07:58;35.50;75.50
44573;DHT22;31762;45.420;10.072;2022-07-21T17:13:00;35.30;76.30
44573;DHT22;31762;45.420;10.072;2022-07-21T17:18:02;35.30;77.50
44573;DHT22;31762;45.420;10.072;2022-07-21T17:23:04;35.10;78.20
44573;DHT22;31762;45.420;10.072;2022-07-21T17:28:05;35.00;78.10
44573;DHT22;31762;45.420;10.072;2022-07-21T17:33:07;35.00;79.30
44573;DHT22;31762;45.420;10.072;2022-07-21T17:38:09;34.80;79.90
44573;DHT22;31762;45.420;10.072;2022-07-21T17:43:11;34.70;80.60
44573;DHT22;31762;45.420;10.072;2022-07-21T17:48:13;34.70;80.70
44573;DHT22;31762;45.420;10.072;2022-07-21T17:53:14;34.70;81.80
44573;DHT22;31762;45.420;10.072;2022-07-21T17:58:16;34.70;81.70
44573;DHT22;31762;45.420;10.072;2022-07-21T18:03:18;34.60;82.60
44573;DHT22;31762;45.420;10.072;2022-07-21T18:08:20;34.50;83.30
44573;DHT22;31762;45.420;10.072;2022-07-21T18:13:22;34.40;83.20
44573;DHT22;31762;45.420;10.072;2022-07-21T18:18:24;34.40;84.00
44573;DHT22;31762;45.420;10.072;2022-07-21T18:23:26;34.30;84.00
44573;DHT22;31762;45.420;10.072;2022-07-21T18:28:27;34.30;84.60
44573;DHT22;31762;45.420;10.072;2022-07-21T18:33:29;34.10;84.90
44573;DHT22;31762;45.420;10.072;2022-07-21T18:38:31;34.00;85.70
44573;DHT22;31762;45.420;10.072;2022-07-21T18:43:33;33.90;86.60
44573;DHT22;31762;45.420;10.072;2022-07-21T18:48:34;33.70;87.70
44573;DHT22;31762;45.420;10.072;2022-07-21T18:53:49;33.60;87.90
44573;DHT22;31762;45.420;10.072;2022-07-21T18:58:52;33.40;89.80
44573;DHT22;31762;45.420;10.072;2022-07-21T19:03:53;33.40;89.50
44573;DHT22;31762;45.420;10.072;2022-07-21T19:08:56;33.30;90.90
44573;DHT22;31762;45.420;10.072;2022-07-21T19:13:58;32.70;91.90
44573;DHT22;31762;45.420;10.072;2022-07-21T19:18:59;32.80;92.40
44573;DHT22;31762;45.420;10.072;2022-07-21T19:24:01;33.00;92.40
44573;DHT22;31762;45.420;10.072;2022-07-21T19:29:03;32.50;93.50
44573;DHT22;31762;45.420;10.072;2022-07-21T19:34:05;32.40;94.10
44573;DHT22;31762;45.420;10.072;2022-07-21T19:39:07;32.00;95.00
44573;DHT22;31762;45.420;10.072;2022-07-21T19:44:08;32.00;95.40
44573;DHT22;31762;45.420;10.072;2022-07-21T19:49:10;32.10;95.80
44573;DHT22;31762;45.420;10.072;2022-07-21T19:54:12;32.10;96.70
44573;DHT22;31762;45.420;10.072;2022-07-21T19:59:14;32.00;97.20
44573;DHT22;31762;45.420;10.072;2022-07-21T20:04:16;31.90;96.70
44573;DHT22;31762;45.420;10.072;2022-07-21T20:09:21;31.90;97.00
44573;DHT22;31762;45.420;10.072;2022-07-21T20:14:23;31.90;97.40
44573;DHT22;31762;45.420;10.072;2022-07-21T20:19:25;31.50;97.70
44573;DHT22;31762;45.420;10.072;2022-07-21T20:24:26;31.50;98.00
44573;DHT22;31762;45.420;10.072;2022-07-21T20:29:28;31.50;98.40
44573;DHT22;31762;45.420;10.072;2022-07-21T20:34:30;31.40;99.10
44573;DHT22;31762;45.420;10.072;2022-07-21T20:39:32;31.50;99.00
44573;DHT22;31762;45.420;10.072;2022-07-21T20:44:34;31.30;99.90
44573;DHT22;31762;45.420;10.072;2022-07-21T20:49:36;31.30;99.90
44573;DHT22;31762;45.420;10.072;2022-07-21T20:54:38;31.00;99.90
44573;DHT22;31762;45.420;10.072;2022-07-21T20:59:40;31.10;99.90
44573;DHT22;31762;45.420;10.072;2022-07-21T21:04:41;31.00;99.90
44573;DHT22;31762;45.420;10.072;2022-07-21T21:09:43;31.00;99.90
44573;DHT22;31762;45.420;10.072;2022-07-21T21:14:45;31.00;99.90
44573;DHT22;31762;45.420;10.072;2022-07-21T21:19:47;30.90;99.90
44573;DHT22;31762;45.420;10.072;2022-07-21T21:24:48;30.80;99.90
44573;DHT22;31762;45.420;10.072;2022-07-21T21:29:50;30.70;99.90
44573;DHT22;31762;45.420;10.072;2022-07-21T21:34:52;30.60;99.90
44573;DHT22;31762;45.420;10.072;2022-07-21T21:39:54;30.70;99.90
44573;DHT22;31762;45.420;10.072;2022-07-21T21:44:56;30.70;99.90
44573;DHT22;31762;45.420;10.072;2022-07-21T21:49:57;30.60;99.90
44573;DHT22;31762;45.420;10.072;2022-07-21T21:54:59;30.50;99.90
44573;DHT22;31762;45.420;10.072;2022-07-21T22:00:01;30.20;99.90
44573;DHT22;31762;45.420;10.072;2022-07-21T22:05:03;30.10;99.90
44573;DHT22;31762;45.420;10.072;2022-07-21T22:10:08;30.10;99.90
44573;DHT22;31762;45.420;10.072;2022-07-21T22:15:10;29.90;99.90
44573;DHT22;31762;45.420;10.072;2022-07-21T22:20:12;30.10;99.90
44573;DHT22;31762;45.420;10.072;2022-07-21T22:25:14;30.20;99.60
44573;DHT22;31762;45.420;10.072;2022-07-21T22:30:16;30.20;99.20
44573;DHT22;31762;45.420;10.072;2022-07-21T22:35:17;30.10;99.00
44573;DHT22;31762;45.420;10.072;2022-07-21T22:40:19;30.00;99.10
44573;DHT22;31762;45.420;10.072;2022-07-21T22:45:22;30.00;99.10
44573;DHT22;31762;45.420;10.072;2022-07-21T22:50:24;30.10;99.00
44573;DHT22;31762;45.420;10.072;2022-07-21T22:55:27;29.90;99.00
44573;DHT22;31762;45.420;10.072;2022-07-21T23:00:29;29.90;98.70
44573;DHT22;31762;45.420;10.072;2022-07-21T23:05:31;29.70;98.70
44573;DHT22;31762;45.420;10.072;2022-07-21T23:10:33;30.00;98.40
44573;DHT22;31762;45.420;10.072;2022-07-21T23:15:35;29.80;98.30
44573;DHT22;31762;45.420;10.072;2022-07-21T23:20:37;29.70;98.20
44573;DHT22;31762;45.420;10.072;2022-07-21T23:25:39;29.70;98.30
44573;DHT22;31762;45.420;10.072;2022-07-21T23:30:40;29.70;98.40
44573;DHT22;31762;45.420;10.072;2022-07-21T23:35:42;29.70;98.10
44573;DHT22;31762;45.420;10.072;2022-07-21T23:40:44;29.70;98.10
44573;DHT22;31762;45.420;10.072;2022-07-21T23:45:46;29.50;98.00
44573;DHT22;31762;45.420;10.072;2022-07-21T23:50:48;29.60;97.80
44573;DHT22;31762;45.420;10.072;2022-07-21T23:55:50;29.70;97.40
